Terminal Aerodrome Forecast
Issued by NWS

Home | Current Version | Previous Version | Text Only | Print | Product List | Glossary On
Versions: 1 2 3 4 5 6 7 8 9 10 11 12 13 14 15 16 17 18
679
FTUS44 KMAF 061120
TAFPEQ
TAF
KPEQ 061120Z 0612/0712 10011KT P6SM SCT250
     FM061500 11015G24KT P6SM SCT100 BKN250
     FM070000 11026G35KT P6SM SCT100 BKN250
     FM070700 11012G18KT P6SM BKN250=

USA.gov is the U.S. government's official web portal to all federal, state and local government web resources and services.